createdAt,value
2022-09-03T00:00:09.440Z,98032.00
2022-09-03T00:03:06.421Z,98042.00
2022-09-03T00:06:30.730Z,98049.00
2022-09-03T00:09:24.789Z,98061.00
2022-09-03T00:12:26.900Z,98109.00
2022-09-03T00:15:12.276Z,98082.00
2022-09-03T00:18:04.842Z,98075.00
2022-09-03T00:20:50.955Z,98076.00
2022-09-03T00:23:30.369Z,98074.00
2022-09-03T00:26:12.357Z,98073.00
2022-09-03T00:29:06.608Z,98071.00
2022-09-03T00:31:47.605Z,98056.00
2022-09-03T00:34:37.997Z,98049.00
2022-09-03T00:37:05.554Z,98047.00
2022-09-03T00:39:33.810Z,98051.00
2022-09-03T00:42:37.523Z,98044.00
2022-09-03T00:45:57.830Z,98050.00
2022-09-03T00:48:48.664Z,98040.00
2022-09-03T00:51:33.944Z,98040.00
2022-09-03T00:55:01.512Z,98041.00
2022-09-03T00:58:13.877Z,98040.00
2022-09-03T01:00:45.629Z,98040.00
2022-09-03T01:04:06.509Z,98036.00
2022-09-03T01:07:10.421Z,98036.00
2022-09-03T01:10:16.381Z,98043.00
2022-09-03T01:13:30.000Z,98047.00
2022-09-03T01:16:39.847Z,98026.00
2022-09-03T01:20:02.959Z,98028.00
2022-09-03T01:23:14.379Z,98027.00
2022-09-03T01:26:35.408Z,98038.00
2022-09-03T01:29:35.264Z,98046.00
2022-09-03T01:32:34.797Z,98050.00
2022-09-03T01:35:47.486Z,98052.00
2022-09-03T01:38:47.223Z,98051.00
2022-09-03T01:42:21.304Z,98062.00
2022-09-03T01:45:22.569Z,98063.00
2022-09-03T01:48:42.212Z,98071.00
2022-09-03T01:51:23.169Z,98073.00
2022-09-03T01:54:22.013Z,98082.00
2022-09-03T01:57:46.041Z,98087.00
2022-09-03T02:00:20.640Z,98086.00
2022-09-03T02:02:54.244Z,98104.00
2022-09-03T02:05:29.201Z,98101.00
2022-09-03T02:08:07.350Z,98091.00
2022-09-03T02:10:53.685Z,98085.00
2022-09-03T02:13:51.140Z,98091.00
2022-09-03T02:16:28.384Z,98089.00
2022-09-03T02:19:03.349Z,98091.00
2022-09-03T02:21:40.794Z,98088.00
2022-09-03T02:24:09.439Z,98088.00
2022-09-03T02:26:37.059Z,98075.00
2022-09-03T02:29:05.495Z,98076.00
2022-09-03T02:31:33.809Z,98073.00
2022-09-03T02:34:01.259Z,98082.00
2022-09-03T02:36:46.555Z,98075.00
2022-09-03T02:39:16.707Z,98082.00
2022-09-03T02:41:44.833Z,98072.00
2022-09-03T02:44:33.157Z,98076.00
2022-09-03T02:47:06.924Z,98080.00
2022-09-03T02:49:35.349Z,98079.00
2022-09-03T02:52:09.701Z,98077.00
2022-09-03T02:54:40.041Z,98081.00
2022-09-03T02:57:16.089Z,98076.00
2022-09-03T02:59:51.122Z,98093.00
2022-09-03T03:02:18.540Z,98086.00
2022-09-03T03:04:45.940Z,98080.00
2022-09-03T03:07:14.107Z,98079.00
2022-09-03T03:09:42.416Z,98079.00
2022-09-03T03:12:10.370Z,98081.00
2022-09-03T03:14:37.782Z,98076.00
2022-09-03T03:17:05.729Z,98079.00
2022-09-03T03:19:33.157Z,98081.00
2022-09-03T03:22:00.789Z,98077.00
2022-09-03T03:24:28.507Z,98075.00
2022-09-03T03:26:59.809Z,98077.00
2022-09-03T03:29:27.936Z,98068.00
2022-09-03T03:31:55.235Z,98074.00
2022-09-03T03:34:23.369Z,98080.00
2022-09-03T03:36:50.764Z,98079.00
2022-09-03T03:39:18.300Z,98078.00
2022-09-03T03:41:45.663Z,98069.00
2022-09-03T03:44:12.977Z,98072.00
2022-09-03T03:46:41.929Z,98068.00
2022-09-03T03:49:11.100Z,98072.00
2022-09-03T03:51:39.313Z,98072.00
2022-09-03T03:54:06.933Z,98070.00
2022-09-03T03:56:35.478Z,98062.00
2022-09-03T03:59:03.611Z,98060.00
2022-09-03T04:01:31.116Z,98056.00
2022-09-03T04:04:01.807Z,98064.00
2022-09-03T04:06:29.592Z,98057.00
2022-09-03T04:08:57.031Z,98067.00
2022-09-03T04:11:27.058Z,98072.00
2022-09-03T04:13:54.897Z,98056.00
2022-09-03T04:16:27.416Z,98048.00
2022-09-03T04:18:56.800Z,98044.00
2022-09-03T04:21:31.551Z,98041.00
2022-09-03T04:23:59.473Z,98039.00
2022-09-03T04:26:34.274Z,98038.00
2022-09-03T04:29:07.223Z,98039.00
2022-09-03T04:31:38.752Z,98049.00
2022-09-03T04:34:07.418Z,98032.00
2022-09-03T04:36:35.177Z,98040.00
2022-09-03T04:39:02.863Z,98041.00
2022-09-03T04:41:31.894Z,98046.00
2022-09-03T04:44:00.394Z,98055.00
2022-09-03T04:46:35.367Z,98058.00
2022-09-03T04:49:03.018Z,98065.00
2022-09-03T04:51:31.809Z,98065.00
2022-09-03T04:54:02.542Z,98059.00
2022-09-03T04:56:35.112Z,98058.00
2022-09-03T04:59:09.586Z,98060.00
2022-09-03T05:01:40.586Z,98058.00
2022-09-03T05:04:08.988Z,98052.00
2022-09-03T05:06:37.657Z,98053.00
2022-09-03T05:09:06.010Z,98052.00
2022-09-03T05:11:36.272Z,98054.00
2022-09-03T05:14:05.873Z,98060.00
2022-09-03T05:16:33.379Z,98054.00
2022-09-03T05:19:01.435Z,98057.00
2022-09-03T05:21:30.732Z,98059.00
2022-09-03T05:24:01.860Z,98065.00
2022-09-03T05:26:37.129Z,98063.00
2022-09-03T05:29:07.813Z,98055.00
2022-09-03T05:31:39.575Z,98067.00
2022-09-03T05:34:07.754Z,98059.00
2022-09-03T05:36:38.313Z,98057.00
2022-09-03T05:39:06.503Z,98058.00
2022-09-03T05:41:34.465Z,98063.00
2022-09-03T05:44:02.579Z,98060.00
2022-09-03T05:46:35.077Z,98057.00
2022-09-03T05:49:06.438Z,98054.00
2022-09-03T05:51:36.693Z,98054.00
2022-09-03T05:54:04.266Z,98053.00
2022-09-03T05:56:35.697Z,98052.00
2022-09-03T05:59:09.367Z,98053.00
2022-09-03T06:01:50.937Z,98050.00
2022-09-03T06:04:20.393Z,98051.00
2022-09-03T06:06:49.030Z,98051.00
2022-09-03T06:09:23.288Z,98051.00
2022-09-03T06:11:54.343Z,98050.00
2022-09-03T06:14:25.244Z,98050.00
2022-09-03T06:16:53.089Z,98049.00
2022-09-03T06:19:20.999Z,98047.00
2022-09-03T06:21:48.891Z,98054.00
2022-09-03T06:24:26.472Z,98049.00
2022-09-03T06:26:59.346Z,98057.00
2022-09-03T06:29:27.644Z,98055.00
2022-09-03T06:31:55.085Z,98059.00
2022-09-03T06:34:25.561Z,98052.00
2022-09-03T06:36:54.554Z,98048.00
2022-09-03T06:39:22.421Z,98058.00
2022-09-03T06:41:51.847Z,98061.00
2022-09-03T06:44:19.320Z,98054.00
2022-09-03T06:46:48.502Z,98042.00
2022-09-03T06:49:15.853Z,98042.00
2022-09-03T06:51:44.075Z,98030.00
2022-09-03T06:54:13.262Z,98042.00
2022-09-03T06:56:41.985Z,98040.00
2022-09-03T06:59:15.224Z,98048.00
2022-09-03T07:01:46.159Z,98039.00
2022-09-03T07:04:20.275Z,98048.00
2022-09-03T07:06:47.809Z,98058.00
2022-09-03T07:09:18.150Z,98057.00
2022-09-03T07:11:49.388Z,98054.00
2022-09-03T07:14:22.305Z,98049.00
2022-09-03T07:16:50.688Z,98056.00
2022-09-03T07:19:18.348Z,98050.00
2022-09-03T07:21:49.988Z,98057.00
2022-09-03T07:24:22.796Z,98055.00
2022-09-03T07:26:50.218Z,98051.00
2022-09-03T07:29:21.902Z,98060.00
2022-09-03T07:31:51.934Z,98056.00
2022-09-03T07:34:22.125Z,98061.00
2022-09-03T07:36:51.384Z,98062.00
2022-09-03T07:39:19.838Z,98059.00
2022-09-03T07:41:47.769Z,98073.00
2022-09-03T07:44:19.752Z,98074.00
2022-09-03T07:46:51.944Z,98061.00
2022-09-03T07:49:21.732Z,98067.00
2022-09-03T07:51:54.305Z,98077.00
2022-09-03T07:54:23.572Z,98070.00
2022-09-03T07:56:51.394Z,98083.00
2022-09-03T07:59:19.250Z,98081.00
2022-09-03T08:01:46.572Z,98089.00
2022-09-03T08:04:14.137Z,98083.00
2022-09-03T08:06:42.286Z,98105.00
2022-09-03T08:09:13.930Z,98104.00
2022-09-03T08:11:43.761Z,98101.00
2022-09-03T08:14:15.435Z,98102.00
2022-09-03T08:16:48.081Z,98109.00
2022-09-03T08:19:18.424Z,98118.00
2022-09-03T08:21:46.149Z,98128.00
2022-09-03T08:24:20.916Z,98125.00
2022-09-03T08:26:52.132Z,98123.00
2022-09-03T08:29:21.467Z,98123.00
2022-09-03T08:31:49.295Z,98135.00
2022-09-03T08:34:17.803Z,98146.00
2022-09-03T08:36:47.273Z,98157.00
2022-09-03T08:39:14.776Z,98210.00
2022-09-03T08:42:29.147Z,98250.00
2022-09-03T08:45:06.630Z,98260.00
2022-09-03T08:47:48.290Z,98259.00
2022-09-03T08:50:36.044Z,98226.00
2022-09-03T08:53:55.965Z,98240.00
2022-09-03T08:56:33.026Z,98237.00
2022-09-03T08:59:02.200Z,98245.00
2022-09-03T09:02:51.039Z,98250.00
2022-09-03T09:05:47.064Z,98238.00
2022-09-03T09:09:03.054Z,98228.00
2022-09-03T09:12:15.963Z,98216.00
2022-09-03T09:15:43.237Z,98224.00
2022-09-03T09:19:03.352Z,98228.00
2022-09-03T09:22:41.228Z,98231.00
2022-09-03T09:25:20.528Z,98242.00
2022-09-03T09:28:36.156Z,98250.00
2022-09-03T09:31:11.617Z,98264.00
2022-09-03T09:33:39.384Z,98265.00
2022-09-03T09:36:15.368Z,98280.00
2022-09-03T09:38:45.556Z,98288.00
2022-09-03T09:41:23.369Z,98279.00
2022-09-03T09:44:05.704Z,98273.00
2022-09-03T09:46:43.124Z,98269.00
2022-09-03T09:49:58.602Z,98279.00
2022-09-03T09:52:30.273Z,98288.00
2022-09-03T09:55:19.190Z,98290.00
2022-09-03T09:57:47.331Z,98286.00
2022-09-03T10:00:18.781Z,98294.00
2022-09-03T10:02:54.755Z,98296.00
2022-09-03T10:05:36.795Z,98283.00
2022-09-03T10:08:22.023Z,98293.00
2022-09-03T10:10:51.832Z,98303.00
2022-09-03T10:13:30.789Z,98297.00
2022-09-03T10:16:43.315Z,98280.00
2022-09-03T10:19:26.216Z,98281.00
2022-09-03T10:22:18.862Z,98267.00
2022-09-03T10:25:02.888Z,98234.00
2022-09-03T10:27:32.139Z,98246.00
2022-09-03T10:30:00.730Z,98261.00
2022-09-03T10:33:07.116Z,98244.00
2022-09-03T10:35:52.716Z,98252.00
2022-09-03T10:38:34.591Z,98260.00
2022-09-03T10:41:55.832Z,98269.00
2022-09-03T10:44:43.681Z,98266.00
2022-09-03T10:48:17.309Z,98267.00
2022-09-03T10:51:49.488Z,98264.00
2022-09-03T10:55:03.939Z,98271.00
2022-09-03T10:58:38.338Z,98255.00
2022-09-03T11:02:15.290Z,98255.00
2022-09-03T11:05:30.529Z,98247.00
2022-09-03T11:08:21.957Z,98237.00
2022-09-03T11:11:08.764Z,98241.00
2022-09-03T11:14:12.249Z,98242.00
2022-09-03T11:16:54.245Z,98237.00
2022-09-03T11:20:06.519Z,98231.00
2022-09-03T11:22:35.000Z,98232.00
2022-09-03T11:25:05.589Z,98235.00
2022-09-03T11:28:12.780Z,98214.00
2022-09-03T11:31:52.945Z,98222.00
2022-09-03T11:34:32.266Z,98215.00
2022-09-03T11:37:26.280Z,98205.00
2022-09-03T11:40:19.368Z,98207.00
2022-09-03T11:42:47.385Z,98215.00
2022-09-03T11:45:30.174Z,98198.00
2022-09-03T11:47:57.781Z,98191.00
2022-09-03T11:50:34.543Z,98196.00
2022-09-03T11:53:15.118Z,98189.00
2022-09-03T11:56:05.198Z,98180.00
2022-09-03T11:58:42.960Z,98189.00
2022-09-03T12:01:20.748Z,98185.00
2022-09-03T12:04:09.756Z,98179.00
2022-09-03T12:07:40.595Z,98183.00
2022-09-03T12:10:41.751Z,98193.00
2022-09-03T12:14:21.330Z,98198.00
2022-09-03T12:18:31.967Z,98198.00
2022-09-03T12:21:00.166Z,98202.00
2022-09-03T12:23:51.035Z,98193.00
2022-09-03T12:26:27.552Z,98196.00
2022-09-03T12:29:00.872Z,98192.00
2022-09-03T12:31:46.760Z,98197.00
2022-09-03T12:34:18.636Z,98191.00
2022-09-03T12:36:52.148Z,98187.00
2022-09-03T12:42:30.880Z,98168.00
2022-09-03T12:45:12.728Z,98167.00
2022-09-03T12:47:41.994Z,98165.00
2022-09-03T12:50:17.075Z,98152.00
2022-09-03T12:52:53.782Z,98151.00
2022-09-03T12:55:36.830Z,98159.00
2022-09-03T12:58:54.342Z,98145.00
2022-09-03T13:01:33.456Z,98141.00
2022-09-03T13:04:15.269Z,98152.00
2022-09-03T13:07:08.275Z,98155.00
2022-09-03T13:09:39.889Z,98144.00
2022-09-03T13:12:07.856Z,98150.00
2022-09-03T13:14:48.273Z,98150.00
2022-09-03T13:18:01.983Z,98145.00
2022-09-03T13:21:32.589Z,98138.00
2022-09-03T13:25:01.983Z,98142.00
2022-09-03T13:28:18.956Z,98144.00
2022-09-03T13:31:21.662Z,98150.00
2022-09-03T13:34:12.928Z,98149.00
2022-09-03T13:37:10.143Z,98155.00
2022-09-03T13:40:36.249Z,98158.00
2022-09-03T13:43:43.536Z,98147.00
2022-09-03T13:47:02.577Z,98153.00
2022-09-03T13:50:09.206Z,98136.00
2022-09-03T13:53:10.504Z,98138.00
2022-09-03T13:55:55.828Z,98121.00
2022-09-03T13:58:48.920Z,98131.00
2022-09-03T14:01:46.074Z,98120.00
2022-09-03T14:04:29.169Z,98143.00
2022-09-03T14:07:15.756Z,98133.00
2022-09-03T14:10:46.541Z,98143.00
2022-09-03T14:13:59.490Z,98142.00
2022-09-03T14:16:39.802Z,98145.00
2022-09-03T14:20:00.540Z,98137.00
2022-09-03T14:23:08.785Z,98126.00
2022-09-03T14:25:37.108Z,98133.00
2022-09-03T14:28:44.435Z,98117.00
2022-09-03T14:32:03.445Z,98119.00
2022-09-03T14:35:52.839Z,98129.00
2022-09-03T14:39:24.566Z,98132.00
2022-09-03T14:42:07.823Z,98127.00
2022-09-03T14:45:13.367Z,98125.00
2022-09-03T14:48:58.248Z,98140.00
2022-09-03T14:52:39.423Z,98148.00
2022-09-03T14:55:40.692Z,98150.00
2022-09-03T14:58:54.059Z,98149.00
2022-09-03T15:01:39.451Z,98149.00
2022-09-03T15:04:50.259Z,98137.00
2022-09-03T15:07:59.113Z,98147.00
2022-09-03T15:10:56.397Z,98156.00
2022-09-03T15:14:18.679Z,98164.00
2022-09-03T15:17:24.664Z,98176.00
2022-09-03T15:20:53.359Z,98174.00
2022-09-03T15:23:59.916Z,98167.00
2022-09-03T15:27:19.298Z,98175.00
2022-09-03T15:30:13.191Z,98174.00
2022-09-03T15:33:06.855Z,98168.00
2022-09-03T15:36:14.996Z,98169.00
2022-09-03T15:39:09.322Z,98170.00
2022-09-03T15:42:10.347Z,98175.00
2022-09-03T15:44:57.086Z,98174.00
2022-09-03T15:47:50.719Z,98172.00
2022-09-03T15:50:58.942Z,98176.00
2022-09-03T15:54:16.386Z,98184.00
2022-09-03T15:57:15.591Z,98194.00
2022-09-03T16:00:13.245Z,98194.00
2022-09-03T16:03:20.388Z,98198.00
2022-09-03T16:06:17.237Z,98196.00
2022-09-03T16:09:03.223Z,98204.00
2022-09-03T16:12:07.424Z,98198.00
2022-09-03T16:15:00.864Z,98199.00
2022-09-03T16:18:37.376Z,98200.00
2022-09-03T16:21:43.505Z,98212.00
2022-09-03T16:25:07.408Z,98205.00
2022-09-03T16:28:19.743Z,98197.00
2022-09-03T16:31:57.273Z,98203.00
2022-09-03T16:35:44.020Z,98205.00
2022-09-03T16:38:46.697Z,98197.00
2022-09-03T16:41:58.316Z,98191.00
2022-09-03T16:45:20.301Z,98197.00
2022-09-03T16:48:50.813Z,98193.00
2022-09-03T16:51:55.349Z,98191.00
2022-09-03T16:55:14.737Z,98200.00
2022-09-03T16:58:26.961Z,98206.00
2022-09-03T17:02:23.687Z,98195.00
2022-09-03T17:05:12.501Z,98189.00
2022-09-03T17:08:42.561Z,98190.00
2022-09-03T17:12:04.833Z,98195.00
2022-09-03T17:15:16.843Z,98187.00
2022-09-03T17:18:49.889Z,98178.00
2022-09-03T17:22:20.675Z,98176.00
2022-09-03T17:25:05.789Z,98178.00
2022-09-03T17:28:22.691Z,98170.00
2022-09-03T17:31:37.386Z,98166.00
2022-09-03T17:35:00.881Z,98172.00
2022-09-03T17:38:50.821Z,98173.00
2022-09-03T17:42:12.558Z,98176.00
2022-09-03T17:45:35.214Z,98175.00
2022-09-03T17:48:42.186Z,98172.00
2022-09-03T17:51:50.442Z,98175.00
2022-09-03T17:54:37.184Z,98181.00
2022-09-03T17:57:38.240Z,98187.00
2022-09-03T18:00:21.992Z,98185.00
2022-09-03T18:03:49.688Z,98187.00
2022-09-03T18:06:41.802Z,98198.00
2022-09-03T18:09:57.412Z,98197.00
2022-09-03T18:13:55.524Z,98208.00
2022-09-03T18:16:39.624Z,98211.00
2022-09-03T18:19:58.543Z,98212.00
2022-09-03T18:23:03.070Z,98227.00
2022-09-03T18:25:52.270Z,98225.00
2022-09-03T18:29:18.165Z,98219.00
2022-09-03T18:32:04.173Z,98234.00
2022-09-03T18:34:54.992Z,98242.00
2022-09-03T18:37:46.468Z,98244.00
2022-09-03T18:40:53.840Z,98248.00
2022-09-03T18:44:22.158Z,98240.00
2022-09-03T18:48:27.067Z,98236.00
2022-09-03T18:51:52.451Z,98236.00
2022-09-03T18:55:18.303Z,98248.00
2022-09-03T18:59:01.117Z,98251.00
2022-09-03T19:01:59.805Z,98254.00
2022-09-03T19:05:25.628Z,98250.00
2022-09-03T19:08:38.853Z,98263.00
2022-09-03T19:12:27.716Z,98269.00
2022-09-03T19:15:38.982Z,98272.00
2022-09-03T19:19:42.196Z,98282.00
2022-09-03T19:22:33.067Z,98289.00
2022-09-03T19:25:33.940Z,98305.00
2022-09-03T19:28:42.656Z,98310.00
2022-09-03T19:32:06.436Z,98319.00
2022-09-03T19:35:23.557Z,98313.00
2022-09-03T19:39:24.351Z,98302.00
2022-09-03T19:42:41.928Z,98311.00
2022-09-03T19:46:10.440Z,98313.00
2022-09-03T19:49:43.869Z,98328.00
2022-09-03T19:53:23.371Z,98330.00
2022-09-03T19:56:18.360Z,98331.00
2022-09-03T19:59:43.376Z,98338.00
2022-09-03T20:02:29.810Z,98342.00
2022-09-03T20:05:24.992Z,98333.00
2022-09-03T20:08:14.717Z,98339.00
2022-09-03T20:10:48.893Z,98341.00
2022-09-03T20:13:20.687Z,98342.00
2022-09-03T20:16:14.602Z,98341.00
2022-09-03T20:19:45.636Z,98339.00
2022-09-03T20:22:44.357Z,98335.00
2022-09-03T20:26:11.416Z,98338.00
2022-09-03T20:29:34.092Z,98336.00
2022-09-03T20:32:41.715Z,98337.00
2022-09-03T20:35:53.455Z,98333.00
2022-09-03T20:39:03.835Z,98335.00
2022-09-03T20:42:14.366Z,98332.00
2022-09-03T20:45:32.683Z,98334.00
2022-09-03T20:48:43.318Z,98341.00
2022-09-03T20:51:46.087Z,98344.00
2022-09-03T20:54:42.578Z,98350.00
2022-09-03T20:58:11.393Z,98349.00
2022-09-03T21:01:16.544Z,98350.00
2022-09-03T21:04:32.417Z,98354.00
2022-09-03T21:07:43.167Z,98361.00
2022-09-03T21:10:48.013Z,98357.00
2022-09-03T21:13:52.728Z,98355.00
2022-09-03T21:17:00.179Z,98362.00
2022-09-03T21:20:28.604Z,98361.00
2022-09-03T21:23:38.276Z,98368.00
2022-09-03T21:26:33.924Z,98365.00
2022-09-03T21:29:30.877Z,98366.00
2022-09-03T21:32:29.699Z,98371.00
2022-09-03T21:35:42.832Z,98372.00
2022-09-03T21:38:31.388Z,98370.00
2022-09-03T21:41:34.724Z,98376.00
2022-09-03T21:44:32.918Z,98376.00
2022-09-03T21:47:10.545Z,98373.00
2022-09-03T21:49:57.447Z,98372.00
2022-09-03T21:53:02.909Z,98371.00
2022-09-03T21:56:07.865Z,98381.00
2022-09-03T21:59:22.469Z,98381.00
2022-09-03T22:02:28.802Z,98383.00
2022-09-03T22:04:58.665Z,98386.00
2022-09-03T22:08:23.164Z,98387.00
2022-09-03T22:12:03.701Z,98393.00
2022-09-03T22:14:47.935Z,98380.00
2022-09-03T22:17:56.923Z,98389.00
2022-09-03T22:20:28.629Z,98392.00
2022-09-03T22:23:24.804Z,98383.00
2022-09-03T22:26:14.511Z,98389.00
2022-09-03T22:29:24.504Z,98378.00
2022-09-03T22:32:25.363Z,98386.00
2022-09-03T22:35:33.811Z,98385.00
2022-09-03T22:38:33.074Z,98388.00
2022-09-03T22:41:45.935Z,98384.00
2022-09-03T22:44:50.961Z,98392.00
2022-09-03T22:48:06.389Z,98386.00
2022-09-03T22:50:59.288Z,98394.00
2022-09-03T22:54:31.968Z,98391.00
2022-09-03T22:57:01.347Z,98388.00
2022-09-03T22:59:41.512Z,98392.00
2022-09-03T23:02:26.420Z,98386.00
2022-09-03T23:05:28.083Z,98399.00
2022-09-03T23:08:33.732Z,98402.00
2022-09-03T23:11:29.971Z,98406.00
2022-09-03T23:14:12.389Z,98408.00
2022-09-03T23:16:54.354Z,98404.00
2022-09-03T23:19:40.878Z,98404.00
2022-09-03T23:22:41.713Z,98406.00
2022-09-03T23:25:25.643Z,98403.00
2022-09-03T23:28:22.061Z,98413.00
2022-09-03T23:30:49.756Z,98406.00
2022-09-03T23:33:17.166Z,98416.00
2022-09-03T23:37:32.415Z,98416.00
2022-09-03T23:40:15.284Z,98429.00
2022-09-03T23:43:48.205Z,98427.00
2022-09-03T23:47:03.649Z,98433.00
2022-09-03T23:50:11.968Z,98431.00
2022-09-03T23:53:53.619Z,98433.00
2022-09-03T23:57:13.032Z,98439.00
